createdAt,value
2023-01-21T00:01:42.995Z,2.60
2023-01-21T00:04:15.478Z,2.30
2023-01-21T00:06:45.960Z,2.00
2023-01-21T00:09:16.024Z,2.10
2023-01-21T00:11:53.294Z,1.90
2023-01-21T00:14:21.365Z,1.90
2023-01-21T00:16:49.530Z,2.00
2023-01-21T00:19:17.708Z,2.40
2023-01-21T00:21:46.894Z,1.90
2023-01-21T00:24:16.632Z,2.50
2023-01-21T00:26:46.573Z,2.40
2023-01-21T00:29:15.381Z,2.50
2023-01-21T00:31:43.634Z,2.60
2023-01-21T00:34:12.920Z,2.40
2023-01-21T00:36:42.277Z,2.30
2023-01-21T00:39:10.502Z,2.20
2023-01-21T00:41:38.567Z,2.40
2023-01-21T00:44:06.670Z,2.30
2023-01-21T00:46:34.785Z,2.80
2023-01-21T00:49:03.457Z,2.60
2023-01-21T00:51:31.541Z,2.60
2023-01-21T00:53:59.685Z,3.00
2023-01-21T00:56:28.618Z,2.80
2023-01-21T00:58:56.807Z,3.40
2023-01-21T01:01:27.046Z,3.10
2023-01-21T01:03:55.179Z,3.30
2023-01-21T01:06:24.510Z,3.70
2023-01-21T01:08:59.149Z,4.20
2023-01-21T01:11:36.163Z,5.30
2023-01-21T01:16:34.374Z,5.10
2023-01-21T01:19:02.893Z,4.70
2023-01-21T01:21:30.954Z,4.90
2023-01-21T01:24:00.727Z,6.10
2023-01-21T01:26:29.977Z,7.40
2023-01-21T01:29:06.559Z,6.80
2023-01-21T01:31:51.701Z,6.90
2023-01-21T01:34:21.568Z,6.10
2023-01-21T01:36:51.401Z,6.30
2023-01-21T01:39:20.579Z,6.30
2023-01-21T01:41:49.292Z,7.30
2023-01-21T01:45:04.702Z,16.60
2023-01-21T01:47:59.984Z,8.10
2023-01-21T01:50:33.519Z,7.30
2023-01-21T01:53:03.607Z,7.20
2023-01-21T01:55:37.079Z,7.20
2023-01-21T01:58:09.073Z,7.00
2023-01-21T02:00:38.303Z,6.50
2023-01-21T02:03:25.403Z,7.10
2023-01-21T02:08:27.153Z,6.50
2023-01-21T02:10:56.761Z,5.70
2023-01-21T02:13:30.138Z,4.90
2023-01-21T02:16:30.864Z,4.90
2023-01-21T02:19:17.425Z,4.50
2023-01-21T02:22:21.630Z,4.70
2023-01-21T02:25:42.275Z,4.50
2023-01-21T02:28:44.445Z,4.30
2023-01-21T02:31:47.577Z,4.60
2023-01-21T02:34:48.953Z,4.10
2023-01-21T02:37:39.357Z,5.50
2023-01-21T02:40:22.082Z,3.50
2023-01-21T02:43:06.602Z,3.80
2023-01-21T02:45:52.101Z,3.10
2023-01-21T02:48:30.330Z,2.80
2023-01-21T02:50:58.498Z,3.10
2023-01-21T02:53:31.519Z,3.40
2023-01-21T02:56:05.960Z,3.00
2023-01-21T02:58:37.437Z,2.70
2023-01-21T03:02:09.711Z,2.80
2023-01-21T03:05:04.429Z,3.00
2023-01-21T03:07:34.118Z,2.50
2023-01-21T03:10:13.730Z,3.00
2023-01-21T03:12:55.682Z,2.70
2023-01-21T03:16:06.595Z,3.10
2023-01-21T03:18:40.595Z,3.30
2023-01-21T03:21:13.308Z,2.90
2023-01-21T03:23:47.464Z,3.30
2023-01-21T03:26:20.040Z,4.00
2023-01-21T03:29:10.859Z,3.70
2023-01-21T03:31:50.079Z,3.70
2023-01-21T03:34:20.396Z,3.50
2023-01-21T03:37:05.066Z,4.30
2023-01-21T03:39:58.171Z,4.10
2023-01-21T03:42:27.888Z,4.40
2023-01-21T03:45:00.785Z,3.90
2023-01-21T03:47:43.753Z,4.20
2023-01-21T03:50:36.013Z,3.70
2023-01-21T03:53:06.723Z,3.50
2023-01-21T03:56:00.074Z,3.90
2023-01-21T03:58:52.734Z,4.20
2023-01-21T04:01:46.437Z,4.40
2023-01-21T04:04:42.864Z,4.90
2023-01-21T04:07:34.949Z,5.50
2023-01-21T04:10:26.717Z,4.60
2023-01-21T04:13:18.776Z,5.30
2023-01-21T04:16:11.089Z,4.50
2023-01-21T04:19:03.294Z,5.00
2023-01-21T04:21:55.473Z,5.20
2023-01-21T04:24:49.611Z,5.20
2023-01-21T04:27:42.044Z,4.80
2023-01-21T04:30:36.674Z,7.50
2023-01-21T04:33:29.584Z,5.20
2023-01-21T04:36:21.897Z,5.20
2023-01-21T04:39:15.292Z,5.10
2023-01-21T04:42:08.202Z,5.50
2023-01-21T04:45:00.172Z,5.00
2023-01-21T04:47:52.380Z,4.70
2023-01-21T04:50:49.627Z,5.20
2023-01-21T04:53:42.411Z,5.10
2023-01-21T04:57:32.544Z,6.40
2023-01-21T05:00:31.153Z,7.30
2023-01-21T05:03:28.942Z,7.30
2023-01-21T05:06:37.380Z,6.50
2023-01-21T05:09:29.714Z,5.60
2023-01-21T05:12:38.528Z,4.70
2023-01-21T05:15:33.797Z,4.90
2023-01-21T05:18:29.698Z,5.30
2023-01-21T05:21:23.395Z,4.60
2023-01-21T05:24:15.878Z,4.80
2023-01-21T05:27:08.581Z,4.40
2023-01-21T05:30:01.383Z,4.60
2023-01-21T05:32:55.392Z,4.80
2023-01-21T05:35:47.787Z,4.20
2023-01-21T05:38:40.049Z,4.10
2023-01-21T05:42:15.177Z,4.00
2023-01-21T05:45:48.965Z,4.40
2023-01-21T05:48:43.646Z,4.70
2023-01-21T05:51:40.215Z,5.20
2023-01-21T05:54:34.546Z,4.20
2023-01-21T05:57:27.291Z,4.40
2023-01-21T06:00:21.902Z,3.80
2023-01-21T06:03:18.091Z,3.60
2023-01-21T06:06:15.320Z,3.60
2023-01-21T06:09:09.669Z,4.00
2023-01-21T06:12:01.940Z,3.70
2023-01-21T06:15:12.574Z,4.20
2023-01-21T06:18:06.168Z,3.80
2023-01-21T06:21:03.143Z,4.10
2023-01-21T06:23:55.445Z,4.20
2023-01-21T06:26:49.082Z,3.50
2023-01-21T06:29:42.371Z,3.70
2023-01-21T06:32:34.922Z,3.60
2023-01-21T06:35:28.284Z,3.40
2023-01-21T06:38:20.848Z,3.40
2023-01-21T06:41:17.848Z,2.60
2023-01-21T06:44:10.898Z,2.60
2023-01-21T06:47:03.193Z,3.00
2023-01-21T06:50:27.233Z,3.20
2023-01-21T06:53:47.208Z,2.90
2023-01-21T06:57:01.554Z,3.10
2023-01-21T07:00:13.233Z,3.30
2023-01-21T07:03:26.986Z,3.70
2023-01-21T07:06:41.313Z,4.50
2023-01-21T07:09:35.982Z,7.80
2023-01-21T07:12:56.086Z,5.10
2023-01-21T07:16:48.225Z,6.10
2023-01-21T07:21:05.686Z,5.10
2023-01-21T07:24:37.132Z,4.60
2023-01-21T07:28:28.717Z,6.30
2023-01-21T07:32:02.815Z,6.20
2023-01-21T07:34:59.026Z,5.90
2023-01-21T07:37:51.192Z,6.60
2023-01-21T07:40:42.962Z,6.30
2023-01-21T07:43:35.329Z,5.60
2023-01-21T07:46:27.472Z,5.70
2023-01-21T07:49:20.092Z,5.70
2023-01-21T07:52:11.983Z,4.70
2023-01-21T07:55:04.736Z,7.30
2023-01-21T07:57:58.557Z,4.50
2023-01-21T08:00:50.895Z,6.20
2023-01-21T08:03:43.265Z,4.10
2023-01-21T08:06:35.341Z,5.00
2023-01-21T08:09:27.113Z,4.50
2023-01-21T08:12:18.933Z,3.90
2023-01-21T08:15:14.088Z,3.80
2023-01-21T08:18:06.261Z,3.60
2023-01-21T08:20:58.829Z,4.80
2023-01-21T08:23:51.129Z,4.60
2023-01-21T08:26:43.037Z,4.00
2023-01-21T08:29:35.064Z,5.00
2023-01-21T08:32:30.823Z,4.30
2023-01-21T08:35:22.919Z,4.50
2023-01-21T08:38:14.612Z,4.50
2023-01-21T08:41:07.017Z,6.00
2023-01-21T08:43:59.049Z,5.50
2023-01-21T08:46:51.025Z,5.80
2023-01-21T08:49:42.879Z,5.20
2023-01-21T08:52:34.686Z,9.60
2023-01-21T08:55:27.336Z,20.00
2023-01-21T08:58:19.025Z,6.60
2023-01-21T09:01:13.840Z,5.50
2023-01-21T09:04:06.915Z,6.30
2023-01-21T09:06:59.302Z,7.40
2023-01-21T09:09:50.910Z,8.00
2023-01-21T09:12:42.842Z,15.30
2023-01-21T09:15:42.846Z,8.00
2023-01-21T09:18:35.880Z,7.30
2023-01-21T09:21:29.455Z,8.70
2023-01-21T09:24:20.833Z,7.20
2023-01-21T09:27:13.093Z,7.80
2023-01-21T09:30:05.764Z,7.20
2023-01-21T09:32:58.039Z,7.90
2023-01-21T09:35:58.383Z,9.70
2023-01-21T09:38:51.250Z,8.10
2023-01-21T09:41:53.545Z,8.30
2023-01-21T09:44:49.270Z,8.20
2023-01-21T09:47:43.571Z,7.50
2023-01-21T09:50:38.643Z,8.10
2023-01-21T09:53:58.577Z,8.70
2023-01-21T09:57:35.376Z,8.50
2023-01-21T10:04:15.263Z,9.70
2023-01-21T10:07:52.102Z,9.20
2023-01-21T10:11:23.554Z,10.40
2023-01-21T10:14:45.972Z,9.30
2023-01-21T10:18:39.955Z,9.10
2023-01-21T10:21:57.944Z,8.00
2023-01-21T10:24:57.432Z,8.90
2023-01-21T10:27:49.361Z,8.10
2023-01-21T10:30:50.294Z,8.70
2023-01-21T10:33:42.874Z,8.00
2023-01-21T10:36:47.931Z,8.50
2023-01-21T10:39:43.296Z,7.10
2023-01-21T10:42:52.479Z,7.90
2023-01-21T10:46:10.940Z,8.50
2023-01-21T10:49:12.290Z,8.40
2023-01-21T10:52:11.726Z,7.60
2023-01-21T10:55:31.517Z,7.70
2023-01-21T10:58:33.228Z,16.60
2023-01-21T11:01:29.936Z,9.20
2023-01-21T11:04:28.343Z,8.20
2023-01-21T11:07:22.453Z,7.70
2023-01-21T11:10:20.925Z,6.90
2023-01-21T11:13:14.234Z,6.80
2023-01-21T11:16:06.965Z,8.00
2023-01-21T11:18:59.779Z,9.40
2023-01-21T11:22:17.905Z,8.30
2023-01-21T11:25:42.528Z,8.60
2023-01-21T11:28:34.528Z,9.20
2023-01-21T11:31:30.015Z,6.90
2023-01-21T11:34:23.698Z,12.20
2023-01-21T11:37:24.546Z,6.90
2023-01-21T11:40:22.770Z,7.00
2023-01-21T11:43:45.775Z,6.50
2023-01-21T11:46:40.005Z,6.50
2023-01-21T11:49:33.229Z,7.30
2023-01-21T11:52:26.009Z,7.00
2023-01-21T11:55:24.647Z,7.70
2023-01-21T11:58:26.714Z,7.80
2023-01-21T12:01:21.603Z,7.90
2023-01-21T12:04:15.603Z,7.80
2023-01-21T12:07:06.966Z,9.10
2023-01-21T12:10:23.509Z,6.70
2023-01-21T12:13:17.808Z,8.10
2023-01-21T12:16:25.267Z,6.20
2023-01-21T12:19:36.186Z,6.70
2023-01-21T12:23:01.587Z,7.40
2023-01-21T12:26:04.943Z,6.50
2023-01-21T12:29:16.235Z,7.30
2023-01-21T12:32:10.670Z,7.10
2023-01-21T12:35:09.307Z,7.80
2023-01-21T12:38:13.963Z,7.50
2023-01-21T12:41:18.798Z,7.20
2023-01-21T12:44:29.479Z,6.90
2023-01-21T12:47:29.812Z,7.70
2023-01-21T12:50:53.724Z,7.40
2023-01-21T12:53:59.082Z,7.30
2023-01-21T12:57:01.551Z,7.50
2023-01-21T13:00:05.931Z,7.10
2023-01-21T13:03:29.248Z,7.10
2023-01-21T13:06:54.273Z,7.10
2023-01-21T13:09:54.969Z,7.90
2023-01-21T13:12:53.820Z,7.20
2023-01-21T13:15:52.778Z,7.00
2023-01-21T13:18:51.708Z,7.40
2023-01-21T13:22:10.163Z,7.20
2023-01-21T13:25:20.487Z,7.60
2023-01-21T13:28:12.109Z,9.50
2023-01-21T13:31:20.148Z,7.80
2023-01-21T13:34:19.666Z,7.50
2023-01-21T13:37:11.524Z,11.00
2023-01-21T13:40:29.114Z,9.30
2023-01-21T13:44:06.146Z,9.90
2023-01-21T13:47:09.992Z,9.30
2023-01-21T13:50:39.910Z,8.00
2023-01-21T13:53:44.557Z,7.80
2023-01-21T13:56:59.240Z,8.20
2023-01-21T14:00:10.515Z,7.90
2023-01-21T14:03:16.922Z,6.80
2023-01-21T14:06:35.547Z,14.60
2023-01-21T14:09:38.319Z,8.30
2023-01-21T14:12:53.195Z,8.20
2023-01-21T14:15:55.818Z,8.90
2023-01-21T14:19:18.697Z,9.20
2023-01-21T14:22:35.042Z,9.10
2023-01-21T14:26:11.171Z,12.10
2023-01-21T14:29:40.724Z,10.20
2023-01-21T14:32:51.308Z,10.70
2023-01-21T14:36:07.942Z,9.20
2023-01-21T14:39:29.453Z,9.10
2023-01-21T14:42:40.906Z,10.30
2023-01-21T14:45:54.002Z,13.10
2023-01-21T14:48:58.465Z,15.90
2023-01-21T14:51:52.262Z,13.20
2023-01-21T14:54:46.442Z,13.00
2023-01-21T14:57:41.493Z,11.00
2023-01-21T15:00:35.965Z,10.40
2023-01-21T15:03:30.648Z,9.20
2023-01-21T15:06:24.287Z,10.00
2023-01-21T15:09:24.856Z,8.20
2023-01-21T15:12:25.422Z,9.20
2023-01-21T15:16:04.088Z,8.80
2023-01-21T15:19:08.917Z,11.30
2023-01-21T15:22:23.118Z,9.00
2023-01-21T15:25:15.805Z,9.20
2023-01-21T15:28:46.066Z,11.70
2023-01-21T15:31:44.336Z,9.80
2023-01-21T15:34:36.772Z,12.10
2023-01-21T15:37:32.480Z,11.10
2023-01-21T15:40:35.372Z,12.70
2023-01-21T15:43:35.546Z,10.70
2023-01-21T15:46:53.675Z,10.10
2023-01-21T15:49:54.331Z,9.70
2023-01-21T15:53:28.702Z,9.70
2023-01-21T15:56:43.174Z,9.90
2023-01-21T16:00:00.123Z,10.40
2023-01-21T16:02:59.173Z,10.90
2023-01-21T16:06:27.639Z,12.00
2023-01-21T16:09:37.907Z,11.50
2023-01-21T16:12:47.470Z,11.20
2023-01-21T16:16:02.478Z,12.90
2023-01-21T16:19:03.376Z,12.90
2023-01-21T16:22:01.273Z,13.70
2023-01-21T16:24:59.429Z,12.00
2023-01-21T16:27:55.357Z,13.80
2023-01-21T16:30:57.445Z,12.20
2023-01-21T16:33:50.523Z,14.50
2023-01-21T16:36:42.798Z,11.00
2023-01-21T16:39:34.731Z,11.30
2023-01-21T16:42:32.144Z,11.00
2023-01-21T16:45:26.039Z,10.50
2023-01-21T16:48:23.067Z,11.30
2023-01-21T16:51:22.192Z,10.60
2023-01-21T16:54:20.716Z,10.00
2023-01-21T16:57:16.908Z,10.30
2023-01-21T17:00:27.284Z,11.70
2023-01-21T17:03:23.234Z,9.00
2023-01-21T17:06:31.239Z,7.70
2023-01-21T17:09:26.156Z,7.90
2023-01-21T17:12:25.516Z,7.90
2023-01-21T17:15:38.575Z,11.10
2023-01-21T17:18:40.504Z,11.20
2023-01-21T17:21:43.243Z,12.70
2023-01-21T17:24:39.467Z,16.50
2023-01-21T17:27:33.409Z,15.30
2023-01-21T17:30:30.385Z,18.30
2023-01-21T17:33:30.732Z,19.90
2023-01-21T17:36:40.529Z,23.20
2023-01-21T17:39:50.791Z,23.60
2023-01-21T17:42:42.622Z,20.70
2023-01-21T17:45:42.796Z,19.60
2023-01-21T17:48:45.278Z,21.60
2023-01-21T17:51:37.839Z,17.80
2023-01-21T17:54:30.016Z,21.90
2023-01-21T17:57:42.931Z,17.40
2023-01-21T18:00:43.349Z,18.20
2023-01-21T18:03:35.605Z,18.70
2023-01-21T18:06:29.185Z,15.90
2023-01-21T18:09:24.469Z,15.20
2023-01-21T18:12:19.507Z,17.80
2023-01-21T18:15:16.296Z,17.60
2023-01-21T18:18:16.707Z,13.80
2023-01-21T18:21:19.062Z,11.10
2023-01-21T18:24:11.536Z,14.10
2023-01-21T18:27:04.080Z,19.00
2023-01-21T18:29:58.142Z,13.50
2023-01-21T18:32:51.003Z,14.50
2023-01-21T18:35:46.174Z,12.30
2023-01-21T18:38:38.747Z,13.70
2023-01-21T18:41:30.535Z,10.30
2023-01-21T18:44:22.780Z,11.80
2023-01-21T18:47:20.657Z,10.50
2023-01-21T18:50:16.418Z,10.60
2023-01-21T18:53:09.305Z,12.00
2023-01-21T18:56:01.576Z,11.40
2023-01-21T18:58:54.212Z,13.20
2023-01-21T19:01:46.766Z,13.00
2023-01-21T19:04:38.818Z,11.50
2023-01-21T19:07:30.675Z,11.40
2023-01-21T19:10:23.051Z,11.70
2023-01-21T19:13:15.593Z,13.30
2023-01-21T19:16:14.746Z,13.50
2023-01-21T19:19:11.585Z,15.00
2023-01-21T19:22:03.670Z,14.00
2023-01-21T19:24:55.656Z,12.50
2023-01-21T19:27:51.413Z,12.70
2023-01-21T19:30:45.339Z,12.30
2023-01-21T19:33:38.247Z,10.70
2023-01-21T19:36:30.799Z,11.60
2023-01-21T19:39:24.221Z,10.60
2023-01-21T19:42:17.989Z,11.70
2023-01-21T19:45:13.308Z,13.90
2023-01-21T19:48:11.568Z,14.80
2023-01-21T19:51:04.150Z,17.50
2023-01-21T19:53:56.351Z,18.10
2023-01-21T19:56:48.477Z,21.60
2023-01-21T19:59:41.886Z,18.20
2023-01-21T20:02:33.554Z,18.90
2023-01-21T20:05:28.152Z,20.30
2023-01-21T20:08:26.485Z,18.80
2023-01-21T20:11:18.670Z,21.30
2023-01-21T20:14:11.397Z,25.30
2023-01-21T20:17:04.691Z,21.70
2023-01-21T20:19:56.938Z,23.30
2023-01-21T20:22:50.818Z,25.80
2023-01-21T20:25:45.478Z,24.90
2023-01-21T20:28:39.981Z,23.70
2023-01-21T20:31:33.606Z,27.10
2023-01-21T20:34:27.774Z,26.80
2023-01-21T20:37:19.780Z,25.80
2023-01-21T20:40:21.568Z,43.00
2023-01-21T20:43:13.881Z,41.60
2023-01-21T20:46:27.479Z,38.30
2023-01-21T20:49:19.884Z,31.60
2023-01-21T20:52:11.728Z,24.80
2023-01-21T20:55:04.158Z,25.10
2023-01-21T20:57:57.052Z,23.30
2023-01-21T21:00:50.485Z,30.40
2023-01-21T21:03:42.646Z,22.70
2023-01-21T21:06:34.994Z,23.00
2023-01-21T21:09:27.615Z,21.40
2023-01-21T21:12:19.810Z,21.90
2023-01-21T21:15:13.115Z,19.60
2023-01-21T21:18:06.129Z,19.40
2023-01-21T21:20:58.630Z,19.50
2023-01-21T21:23:52.774Z,21.20
2023-01-21T21:26:46.053Z,22.50
2023-01-21T21:29:38.775Z,17.70
2023-01-21T21:32:30.975Z,20.30
2023-01-21T21:35:33.094Z,22.60
2023-01-21T21:38:26.233Z,23.10
2023-01-21T21:41:40.357Z,19.70
2023-01-21T21:44:33.442Z,22.80
2023-01-21T21:47:43.940Z,21.80
2023-01-21T21:50:36.444Z,21.50
2023-01-21T21:53:30.478Z,16.20
2023-01-21T21:56:24.033Z,19.10
2023-01-21T21:59:15.837Z,17.30
2023-01-21T22:02:11.555Z,18.30
2023-01-21T22:05:04.503Z,21.10
2023-01-21T22:07:56.596Z,20.60
2023-01-21T22:10:56.478Z,18.90
2023-01-21T22:13:50.752Z,20.20
2023-01-21T22:16:42.605Z,20.70
2023-01-21T22:19:36.297Z,21.50
2023-01-21T22:22:29.712Z,19.40
2023-01-21T22:25:21.804Z,15.80
2023-01-21T22:28:13.883Z,16.90
2023-01-21T22:31:11.168Z,20.80
2023-01-21T22:34:03.884Z,15.80
2023-01-21T22:36:55.867Z,18.40
2023-01-21T22:39:48.669Z,17.90
2023-01-21T22:42:40.664Z,16.50
2023-01-21T22:45:33.052Z,18.70
2023-01-21T22:48:26.967Z,19.70
2023-01-21T22:51:19.760Z,16.70
2023-01-21T22:54:12.018Z,15.40
2023-01-21T22:57:03.653Z,18.90
2023-01-21T22:59:55.883Z,21.50
2023-01-21T23:02:47.711Z,19.20
2023-01-21T23:05:39.726Z,18.40
2023-01-21T23:08:32.108Z,21.20
2023-01-21T23:11:24.874Z,18.10
2023-01-21T23:14:17.499Z,18.60
2023-01-21T23:17:09.762Z,21.70
2023-01-21T23:20:01.709Z,22.20
2023-01-21T23:22:55.735Z,18.40
2023-01-21T23:25:47.445Z,20.60
2023-01-21T23:28:39.806Z,17.80
2023-01-21T23:31:31.782Z,23.90
2023-01-21T23:34:23.462Z,25.30
2023-01-21T23:37:15.695Z,24.20
2023-01-21T23:40:08.495Z,25.30
2023-01-21T23:43:01.022Z,24.00
2023-01-21T23:45:53.629Z,22.00
2023-01-21T23:48:45.842Z,20.90
2023-01-21T23:51:37.882Z,19.80
2023-01-21T23:54:29.854Z,20.60
2023-01-21T23:57:21.741Z,17.90
